This is the latest recevied weather packets stored in our database for station/object W9KHP-1. If no packets are shown the sender has not sent any weather packets the latest 1 day(s).
| Time | Temp. | Humidity | Pressure | Rain* | Wind** | Luminosity | Snow |
|---|---|---|---|---|---|---|---|
| 1778010217 | 16.11° C | 99% | 1010 hPa | 1.27 mm | 0.89 m/s, 247° | 44 W/m² | - |
| 1778009912 | 16.11° C | 99% | 1010 hPa | 0 mm | 0 m/s | 88 W/m² | - |
| 1778009610 | 16.11° C | 99% | 1010.2 hPa | 1.78 mm | 0.45 m/s, 154° | 70 W/m² | - |
| 1778009308 | 16.11° C | 99% | 1010.5 hPa | 0 mm | 0.89 m/s, 292° | 59 W/m² | - |
| 1778009006 | 16.11° C | 99% | 1010.5 hPa | 0 mm | 0.45 m/s, 136° | 48 W/m² | - |
| 1778008703 | 16.11° C | 99% | 1010.6 hPa | 1.27 mm | 0 m/s | 47 W/m² | - |
| 1778008402 | 16.11° C | 99% | 1010.8 hPa | 3.05 mm | 0 m/s | 71 W/m² | - |
| 1778008098 | 16.11° C | 99% | 1010.8 hPa | 1.78 mm | 0 m/s | 54 W/m² | - |
| 1778007793 | 16.11° C | 99% | 1010.7 hPa | 1.78 mm | 0.89 m/s, 170° | 60 W/m² | - |
| 1778007489 | 16.11° C | 99% | 1010.8 hPa | 0 mm | 0 m/s | 30 W/m² | - |
| 1778007186 | 16.11° C | 99% | 1010.9 hPa | 0 mm | 0 m/s | 38 W/m² | - |
| 1778006882 | 16.11° C | 99% | 1011.1 hPa | 0 mm | 0 m/s | 53 W/m² | - |
| 1778006579 | 16.11° C | 99% | 1011.1 hPa | 0 mm | 0 m/s | 55 W/m² | - |
| 1778006276 | 16.11° C | 99% | 1011.1 hPa | 0 mm | 0 m/s | 41 W/m² | - |
| 1778005973 | 16.11° C | 99% | 1011.1 hPa | 0 mm | 0 m/s | 33 W/m² | - |
| 1778005670 | 16.11° C | 99% | 1011 hPa | 0 mm | 1.34 m/s, 241° | 52 W/m² | - |
| 1778005366 | 16.11° C | 99% | 1010.9 hPa | 1.27 mm | 0 m/s | 51 W/m² | - |
| 1778005063 | 16.11° C | 99% | 1010.8 hPa | 4.32 mm | 0.89 m/s, 240° | 94 W/m² | - |
| 1778004761 | 16.11° C | 99% | 1011.1 hPa | 3.05 mm | 0 m/s | 88 W/m² | - |
| 1778004457 | 16.11° C | 99% | 1011.1 hPa | 1.78 mm | 0.45 m/s, 129° | 106 W/m² | - |
| 1778004153 | 16.11° C | 99% | 1011.1 hPa | 0 mm | 0 m/s | 36 W/m² | - |
| 1778003850 | 16.11° C | 99% | 1011.1 hPa | 0 mm | 0 m/s | 19 W/m² | - |
| 1778003547 | 16.11° C | 99% | 1011 hPa | 0 mm | 0 m/s | 39 W/m² | - |
| 1778003243 | 16.11° C | 99% | 1011.1 hPa | 0 mm | 0 m/s | 67 W/m² | - |
| 1778002940 | 16.11° C | 99% | 1011.4 hPa | 1.78 mm | 0 m/s | 58 W/m² | - |
* Rain latest hour (hover to see other rain measurements)
** Current wind speed in m/s (hover to see current wind gust speed)